Time;durP1;ratioP1;P1;durP2;ratioP2;P2;SDS_P1;SDS_P2;PMS_P1;PMS_P2;Temp;Humidity;BMP_temperature;BMP_pressure;BME280_temperature;BME280_humidity;BME280_pressure;Samples;Min_cycle;Max_cycle;Signal;HPM_P1;HPM_P2
2022/09/22 00:01:33;;;;;;;9.32;4.40;;;6.80;99.90;;;;;;4991497;28;20049;-74
2022/09/22 00:04:04;;;;;;;9.77;4.70;;;6.80;99.90;;;;;;4987928;28;20046;-73
2022/09/22 00:06:38;;;;;;;8.93;4.60;;;6.80;99.90;;;;;;4990016;28;20045;-72
2022/09/22 00:09:09;;;;;;;7.18;4.28;;;6.70;99.90;;;;;;4982964;28;20042;-73
2022/09/22 00:11:41;;;;;;;7.00;4.20;;;6.60;99.90;;;;;;5005032;28;20121;-73
2022/09/22 00:14:15;;;;;;;10.00;4.53;;;6.60;99.90;;;;;;4991408;28;20543;-74
2022/09/22 00:16:49;;;;;;;7.45;4.38;;;6.60;99.90;;;;;;4970511;28;20061;-73
2022/09/22 00:19:22;;;;;;;7.40;4.45;;;6.50;99.90;;;;;;4989559;28;20869;-74
2022/09/22 00:21:50;;;;;;;8.52;4.85;;;6.50;99.90;;;;;;5006114;28;20454;-73
2022/09/22 00:24:21;;;;;;;8.63;4.82;;;6.50;99.90;;;;;;4973383;28;20050;-73
2022/09/22 00:26:50;;;;;;;8.05;4.50;;;6.40;99.90;;;;;;4982452;28;20123;-73
2022/09/22 00:29:17;;;;;;;11.25;5.25;;;6.40;99.90;;;;;;4985157;28;20102;-73
2022/09/22 00:31:45;;;;;;;8.68;5.30;;;6.40;99.90;;;;;;4998358;28;20053;-74
2022/09/22 00:34:15;;;;;;;8.45;5.38;;;6.30;99.90;;;;;;4989808;28;20093;-75
2022/09/22 00:36:44;;;;;;;10.02;4.82;;;6.30;99.90;;;;;;4989752;28;20049;-73
2022/09/22 00:39:12;;;;;;;10.07;5.18;;;6.20;99.90;;;;;;4989301;28;20073;-73
2022/09/22 00:41:43;;;;;;;11.68;5.43;;;6.30;99.90;;;;;;4971887;28;20145;-75
2022/09/22 00:44:19;;;;;;;8.75;5.32;;;6.20;99.90;;;;;;4990267;28;20039;-74
2022/09/22 00:46:53;;;;;;;7.60;4.80;;;6.20;99.90;;;;;;4990887;28;20062;-73
2022/09/22 00:49:38;;;;;;;9.02;5.30;;;6.20;99.90;;;;;;4989822;28;20054;-75
2022/09/22 00:52:07;;;;;;;8.90;4.97;;;6.20;99.90;;;;;;4987036;28;20538;-73
2022/09/22 00:54:34;;;;;;;9.98;5.35;;;6.10;99.90;;;;;;5002146;28;20078;-74
2022/09/22 00:57:08;;;;;;;8.63;5.03;;;6.10;99.90;;;;;;4984909;28;20146;-75
2022/09/22 00:59:36;;;;;;;7.50;4.55;;;6.10;99.90;;;;;;4990798;28;20532;-74
2022/09/22 01:02:04;;;;;;;11.05;5.30;;;6.10;99.90;;;;;;4990563;28;20549;-76
2022/09/22 01:04:31;;;;;;;12.00;5.57;;;6.00;99.90;;;;;;4987660;28;20117;-76
2022/09/22 01:07:00;;;;;;;8.73;5.05;;;6.00;99.90;;;;;;4987645;28;20046;-72
2022/09/22 01:09:31;;;;;;;9.85;5.10;;;6.00;99.90;;;;;;4992717;28;20038;-75
2022/09/22 01:12:01;;;;;;;12.07;5.65;;;6.00;99.90;;;;;;4992077;28;20121;-74
2022/09/22 01:15:02;;;;;;;9.68;5.10;;;6.00;99.90;;;;;;4991411;28;20154;-74
2022/09/22 01:17:55;;;;;;;8.30;5.20;;;6.00;99.90;;;;;;4992059;28;20105;-74
2022/09/22 01:20:28;;;;;;;10.25;5.65;;;5.90;99.90;;;;;;4986543;28;20456;-73
2022/09/22 01:22:59;;;;;;;13.45;5.60;;;5.90;99.90;;;;;;4994022;28;20156;-74
2022/09/22 01:25:35;;;;;;;10.07;5.53;;;5.90;99.90;;;;;;5008073;28;20035;-73
2022/09/22 01:28:21;;;;;;;9.52;5.13;;;5.90;99.90;;;;;;4984363;28;20427;-73
2022/09/22 01:31:00;;;;;;;8.93;4.82;;;5.90;99.90;;;;;;4989051;28;20042;-73
2022/09/22 01:33:47;;;;;;;9.63;5.25;;;5.80;99.90;;;;;;4989699;28;20513;-74
2022/09/22 01:36:20;;;;;;;9.68;5.18;;;5.80;99.90;;;;;;4993860;28;20062;-74
2022/09/22 01:39:17;;;;;;;13.25;5.68;;;5.80;99.90;;;;;;4992480;28;20054;-74
2022/09/22 01:42:12;;;;;;;10.00;4.75;;;5.80;99.90;;;;;;4993642;28;20042;-73
2022/09/22 01:44:48;;;;;;;11.07;5.40;;;5.80;99.90;;;;;;4994011;28;20449;-74
2022/09/22 01:47:30;;;;;;;7.97;4.95;;;5.80;99.90;;;;;;4983265;28;20042;-72
2022/09/22 01:50:04;;;;;;;11.40;5.10;;;5.80;99.90;;;;;;4993459;28;20509;-73
2022/09/22 01:52:33;;;;;;;8.93;5.03;;;5.80;99.90;;;;;;4993546;28;20073;-73
2022/09/22 01:55:26;;;;;;;9.00;5.13;;;5.70;99.90;;;;;;4993645;28;20050;-73
2022/09/22 01:58:01;;;;;;;8.00;4.95;;;5.70;99.90;;;;;;4993343;28;20046;-73
2022/09/22 02:00:29;;;;;;;9.07;5.20;;;5.60;99.90;;;;;;4993772;28;20046;-73
2022/09/22 02:03:10;;;;;;;12.43;5.95;;;5.60;99.90;;;;;;5008098;28;20096;-72
2022/09/22 02:05:46;;;;;;;14.35;4.97;;;5.60;99.90;;;;;;4993075;28;20046;-74
2022/09/22 02:08:40;;;;;;;12.60;5.25;;;5.70;99.90;;;;;;4998222;28;20059;-73
2022/09/22 02:11:12;;;;;;;9.27;5.30;;;5.60;99.90;;;;;;5004255;28;20508;-72
2022/09/22 02:13:41;;;;;;;12.75;5.15;;;5.60;99.90;;;;;;4993221;28;20417;-75
2022/09/22 02:16:13;;;;;;;12.93;4.35;;;5.60;99.90;;;;;;4975733;28;20061;-73
2022/09/22 02:18:55;;;;;;;;;;;5.60;99.90;;;;;;4991487;28;20582;-75
2022/09/22 02:21:39;;;;;;;8.10;4.65;;;5.60;99.90;;;;;;5007865;28;20032;-73
2022/09/22 02:24:24;;;;;;;9.43;5.43;;;5.50;99.90;;;;;;4974696;28;20417;-74
2022/09/22 02:26:52;;;;;;;10.38;5.57;;;5.60;99.90;;;;;;4991468;28;20046;-73
2022/09/22 02:29:21;;;;;;;9.55;5.13;;;5.50;99.90;;;;;;4991007;28;20069;-74
2022/09/22 02:31:50;;;;;;;8.20;4.75;;;5.50;99.90;;;;;;4992539;28;20125;-74
2022/09/22 02:34:18;;;;;;;10.23;5.07;;;5.50;99.90;;;;;;4992740;28;20042;-74
2022/09/22 02:37:00;;;;;;;9.02;5.10;;;5.50;99.90;;;;;;4992526;28;20481;-74
2022/09/22 02:40:03;;;;;;;;;;;5.50;99.90;;;;;;4988705;28;20050;-74
2022/09/22 02:42:32;;;;;;;14.25;6.88;;;5.50;99.90;;;;;;4932370;29;20003;-74
2022/09/22 02:45:14;;;;;;;11.43;6.88;;;5.40;99.90;;;;;;4931900;29;20510;-74
2022/09/22 02:47:56;;;;;;;10.15;7.82;;;5.40;99.90;;;;;;4923116;29;20055;-73
2022/09/22 02:50:25;;;;;;;14.68;8.02;;;5.30;99.90;;;;;;4929599;29;20058;-75
2022/09/22 02:53:00;;;;;;;14.57;7.70;;;5.30;99.90;;;;;;4930029;29;20110;-73
2022/09/22 02:55:27;;;;;;;14.65;7.90;;;5.30;99.90;;;;;;4908882;29;20613;-74
2022/09/22 02:57:55;;;;;;;22.50;8.65;;;5.20;99.90;;;;;;4914254;29;20053;-73
2022/09/22 03:00:22;;;;;;;12.93;7.43;;;5.20;99.90;;;;;;4929480;29;20154;-73
2022/09/22 03:02:49;;;;;;;14.00;8.60;;;5.10;99.90;;;;;;4910326;29;20407;-72
2022/09/22 03:05:17;;;;;;;11.75;7.70;;;5.10;99.90;;;;;;4927389;29;20055;-74
2022/09/22 03:07:44;;;;;;;15.52;7.88;;;5.10;99.90;;;;;;4893976;29;20180;-73
2022/09/22 03:10:11;;;;;;;14.68;7.88;;;5.00;99.90;;;;;;4924693;29;20525;-71
2022/09/22 03:12:41;;;;;;;16.00;8.75;;;5.00;99.90;;;;;;4920849;29;20574;-73
2022/09/22 03:15:28;;;;;;;17.83;9.63;;;4.90;99.90;;;;;;4929938;28;20044;-74
2022/09/22 03:17:56;;;;;;;15.57;9.57;;;4.90;99.90;;;;;;4987474;28;20454;-73
2022/09/22 03:20:23;;;;;;;19.13;8.90;;;4.90;99.90;;;;;;4991649;28;20419;-74
2022/09/22 03:22:51;;;;;;;13.30;8.65;;;4.90;99.90;;;;;;4991923;28;20092;-73
2022/09/22 03:25:18;;;;;;;17.38;8.52;;;4.90;99.90;;;;;;4991501;28;20050;-73
2022/09/22 03:27:46;;;;;;;16.85;7.82;;;4.90;99.90;;;;;;4987929;28;20595;-73
2022/09/22 03:30:13;;;;;;;15.05;7.15;;;4.90;99.90;;;;;;4986200;28;20133;-73
2022/09/22 03:32:41;;;;;;;14.75;8.45;;;4.80;99.90;;;;;;5005863;28;20050;-73
2022/09/22 03:35:08;;;;;;;16.58;7.80;;;4.80;99.90;;;;;;4990576;28;20062;-74
2022/09/22 03:37:36;;;;;;;13.23;7.78;;;4.80;99.90;;;;;;4991393;28;20415;-74
2022/09/22 03:40:04;;;;;;;17.55;8.18;;;4.80;99.90;;;;;;4991895;28;20050;-73
2022/09/22 03:42:33;;;;;;;12.40;8.15;;;4.80;99.90;;;;;;4989644;28;20062;-73
2022/09/22 03:45:03;;;;;;;14.40;7.15;;;4.80;99.90;;;;;;4991599;28;20505;-73
2022/09/22 03:47:30;;;;;;;15.00;7.32;;;4.80;99.90;;;;;;4990275;28;20042;-74
2022/09/22 03:49:58;;;;;;;12.48;7.22;;;4.80;99.90;;;;;;4991012;28;20061;-73
2022/09/22 03:52:26;;;;;;;12.20;7.22;;;4.80;99.90;;;;;;4987757;28;20035;-74
2022/09/22 03:54:53;;;;;;;11.18;6.68;;;4.80;99.90;;;;;;4979841;28;20058;-73
2022/09/22 03:57:20;;;;;;;12.50;6.30;;;4.80;99.90;;;;;;4985175;28;20515;-73
2022/09/22 03:59:48;;;;;;;10.30;6.45;;;4.80;99.90;;;;;;4991481;28;20042;-73
2022/09/22 04:02:15;;;;;;;11.70;6.72;;;4.80;99.90;;;;;;4990523;28;20054;-72
2022/09/22 04:04:43;;;;;;;13.98;6.70;;;4.80;99.90;;;;;;4988602;28;20067;-74
2022/09/22 04:07:10;;;;;;;11.30;6.60;;;4.80;99.90;;;;;;5004921;28;20146;-72
2022/09/22 04:09:38;;;;;;;14.63;6.97;;;4.80;99.90;;;;;;4981131;28;20077;-74
2022/09/22 04:12:06;;;;;;;12.63;6.82;;;4.80;99.90;;;;;;4988800;28;20093;-73
2022/09/22 04:14:33;;;;;;;14.38;7.78;;;4.80;99.90;;;;;;4991142;28;20050;-74
2022/09/22 04:17:00;;;;;;;13.77;6.38;;;4.70;99.90;;;;;;4990736;28;20054;-73
2022/09/22 04:19:28;;;;;;;11.88;6.43;;;4.70;99.90;;;;;;4990828;28;20474;-72
2022/09/22 04:21:55;;;;;;;11.40;6.78;;;4.70;99.90;;;;;;4987888;28;20046;-73
2022/09/22 04:24:23;;;;;;;13.60;7.47;;;4.60;99.90;;;;;;4977981;28;20130;-73
2022/09/22 04:26:51;;;;;;;13.50;7.55;;;4.70;99.90;;;;;;4988339;28;20157;-71
2022/09/22 04:29:38;;;;;;;12.88;6.82;;;4.70;99.90;;;;;;5002688;28;20050;-74
2022/09/22 04:32:06;;;;;;;12.90;6.30;;;4.60;99.90;;;;;;4996505;28;20042;-73
2022/09/22 04:34:33;;;;;;;12.05;7.07;;;4.60;99.90;;;;;;5004975;28;20247;-72
2022/09/22 04:37:00;;;;;;;11.25;7.35;;;4.60;99.90;;;;;;4989196;28;20046;-72
2022/09/22 04:39:28;;;;;;;10.35;7.00;;;4.60;99.90;;;;;;4984741;28;20057;-74
2022/09/22 04:41:55;;;;;;;11.07;7.25;;;4.50;99.90;;;;;;4990153;28;20038;-73
2022/09/22 04:44:22;;;;;;;13.50;7.22;;;4.50;99.90;;;;;;4994027;28;20536;-74
2022/09/22 04:46:50;;;;;;;11.63;6.68;;;4.50;99.90;;;;;;4991640;28;20042;-73
2022/09/22 04:49:17;;;;;;;14.50;6.65;;;4.50;99.90;;;;;;4999871;28;20386;-73
2022/09/22 04:51:45;;;;;;;9.57;6.05;;;4.50;99.90;;;;;;4992952;28;20393;-73
2022/09/22 04:54:15;;;;;;;9.98;6.38;;;4.50;99.90;;;;;;4982106;28;20047;-73
2022/09/22 04:56:43;;;;;;;11.90;6.50;;;4.50;99.90;;;;;;4991714;28;20042;-73
2022/09/22 04:59:10;;;;;;;13.57;6.95;;;4.50;99.90;;;;;;4992055;28;20046;-72
2022/09/22 05:01:38;;;;;;;11.50;7.10;;;4.50;99.90;;;;;;4965757;28;20516;-72
2022/09/22 05:04:05;;;;;;;14.57;6.93;;;4.50;99.90;;;;;;4993454;28;20162;-74
2022/09/22 05:06:32;;;;;;;10.40;5.82;;;4.40;99.90;;;;;;4994378;28;20285;-73
2022/09/22 05:09:01;;;;;;;12.32;6.15;;;4.50;99.90;;;;;;4994436;28;20358;-73
2022/09/22 05:11:29;;;;;;;12.18;6.45;;;4.50;99.90;;;;;;4994891;28;20118;-74
2022/09/22 05:13:57;;;;;;;10.85;6.90;;;4.50;99.90;;;;;;4993905;28;20430;-73
2022/09/22 05:16:25;;;;;;;11.70;6.72;;;4.50;99.90;;;;;;4993911;28;20424;-74
2022/09/22 05:18:52;;;;;;;10.75;6.90;;;4.50;99.90;;;;;;4994231;28;20042;-73
2022/09/22 05:21:20;;;;;;;13.38;7.15;;;4.60;99.90;;;;;;4992834;28;20051;-73
2022/09/22 05:23:47;;;;;;;11.27;6.45;;;4.60;99.90;;;;;;4993068;28;21214;-72
2022/09/22 05:26:14;;;;;;;9.35;6.40;;;4.60;99.90;;;;;;4992667;28;20050;-72
2022/09/22 05:28:42;;;;;;;13.77;7.25;;;4.60;99.90;;;;;;4990253;28;20093;-73
2022/09/22 05:31:09;;;;;;;14.63;6.70;;;4.60;99.90;;;;;;4993294;28;20055;-74
2022/09/22 05:33:36;;;;;;;11.13;6.45;;;4.60;99.90;;;;;;5006458;28;20519;-74
2022/09/22 05:36:04;;;;;;;10.50;6.63;;;4.70;99.90;;;;;;5007425;28;20050;-72
2022/09/22 05:38:31;;;;;;;15.57;7.22;;;4.70;99.90;;;;;;4990753;28;20092;-72
2022/09/22 05:40:58;;;;;;;13.70;6.20;;;4.70;99.90;;;;;;4992669;28;20100;-73
2022/09/22 05:43:26;;;;;;;19.08;10.63;;;4.80;99.90;;;;;;4993236;28;20038;-73
2022/09/22 05:45:53;;;;;;;24.80;13.85;;;4.90;99.90;;;;;;4992445;28;20042;-73
2022/09/22 05:48:20;;;;;;;18.38;9.50;;;5.00;99.90;;;;;;4992300;28;20042;-72
2022/09/22 05:50:48;;;;;;;14.60;8.73;;;5.00;99.90;;;;;;5004896;28;20129;-73
2022/09/22 05:53:15;;;;;;;13.75;8.05;;;5.10;99.90;;;;;;4986676;28;20497;-74
2022/09/22 05:55:43;;;;;;;12.85;8.18;;;5.10;99.90;;;;;;4991136;28;20069;-73
2022/09/22 05:58:11;;;;;;;12.80;8.07;;;5.20;99.90;;;;;;4991332;28;20081;-72
2022/09/22 06:00:40;;;;;;;14.90;8.73;;;5.30;99.90;;;;;;4972368;28;20052;-72
2022/09/22 06:03:08;;;;;;;16.42;9.85;;;5.40;99.90;;;;;;4990045;28;20141;-72
2022/09/22 06:05:36;;;;;;;13.68;8.82;;;5.40;99.90;;;;;;5006035;28;20130;-73
2022/09/22 06:08:05;;;;;;;14.82;8.52;;;5.40;99.90;;;;;;4993078;28;20053;-72
2022/09/22 06:10:35;;;;;;;13.25;8.30;;;5.50;99.90;;;;;;4993104;28;20046;-73
2022/09/22 06:13:04;;;;;;;11.80;8.10;;;5.50;99.90;;;;;;5007932;28;20042;-73
2022/09/22 06:15:35;;;;;;;13.05;8.68;;;5.60;99.90;;;;;;4992067;28;20693;-73
2022/09/22 06:18:05;;;;;;;12.65;8.30;;;5.60;99.90;;;;;;4978768;28;20513;-72
2022/09/22 06:20:34;;;;;;;16.05;8.70;;;5.70;99.90;;;;;;4994674;28;20121;-72
2022/09/22 06:23:02;;;;;;;13.57;8.70;;;5.70;99.90;;;;;;4989757;28;20050;-73
2022/09/22 06:25:30;;;;;;;17.00;8.80;;;5.80;99.90;;;;;;4990771;28;20137;-73
2022/09/22 06:28:03;;;;;;;14.05;9.63;;;5.80;99.90;;;;;;4975766;28;20043;-73
2022/09/22 06:30:32;;;;;;;15.23;9.60;;;5.90;99.90;;;;;;4990431;28;20054;-73
2022/09/22 06:33:00;;;;;;;14.32;9.60;;;6.00;99.90;;;;;;4992013;28;20101;-74
2022/09/22 06:35:35;;;;;;;16.13;9.07;;;6.10;99.90;;;;;;4992296;28;20054;-74
2022/09/22 06:38:05;;;;;;;14.60;9.02;;;6.20;99.90;;;;;;5007611;28;20046;-73
2022/09/22 06:40:36;;;;;;;14.55;8.82;;;6.30;99.90;;;;;;4992979;28;20125;-74
2022/09/22 06:43:11;;;;;;;15.30;9.10;;;6.30;99.90;;;;;;4992438;28;20504;-73
2022/09/22 06:45:39;;;;;;;12.70;8.23;;;6.40;99.90;;;;;;4975505;28;20038;-73
2022/09/22 06:48:09;;;;;;;16.20;9.32;;;6.40;99.90;;;;;;4992474;28;20046;-72
2022/09/22 06:50:37;;;;;;;17.10;9.70;;;6.50;99.90;;;;;;4992653;28;20034;-73
2022/09/22 06:53:06;;;;;;;16.88;9.48;;;6.30;99.90;;;;;;4992238;28;20477;-74
2022/09/22 06:55:38;;;;;;;17.08;9.82;;;6.40;99.90;;;;;;4992183;28;20046;-73
2022/09/22 06:58:05;;;;;;;17.70;10.13;;;6.40;99.90;;;;;;4991078;28;20520;-73
2022/09/22 07:00:33;;;;;;;17.55;9.80;;;6.50;99.90;;;;;;4984573;28;20405;-72
2022/09/22 07:03:07;;;;;;;17.67;10.23;;;6.50;99.90;;;;;;4980637;28;20047;-73
2022/09/22 07:05:38;;;;;;;16.95;9.32;;;6.70;99.90;;;;;;5002224;28;20501;-73
2022/09/22 07:08:07;;;;;;;19.13;10.88;;;6.90;99.90;;;;;;4980549;28;20042;-73
2022/09/22 07:10:37;;;;;;;18.02;10.25;;;7.00;99.90;;;;;;4989907;28;20046;-74
2022/09/22 07:13:05;;;;;;;23.02;11.98;;;7.00;99.90;;;;;;4981512;28;20042;-74
2022/09/22 07:15:34;;;;;;;21.17;11.30;;;7.10;99.90;;;;;;4991586;28;20635;-74
2022/09/22 07:18:03;;;;;;;16.27;10.45;;;7.20;99.90;;;;;;4991458;28;20081;-74
2022/09/22 07:20:32;;;;;;;19.70;10.95;;;7.30;99.90;;;;;;4983945;28;20101;-74
2022/09/22 07:22:59;;;;;;;18.05;10.20;;;7.40;99.90;;;;;;4990029;28;20050;-74
2022/09/22 07:25:28;;;;;;;21.17;11.45;;;7.50;99.90;;;;;;4990105;28;20650;-73
2022/09/22 07:28:03;;;;;;;23.17;12.25;;;7.60;99.90;;;;;;4978907;28;20038;-72
2022/09/22 07:30:33;;;;;;;22.42;11.38;;;7.70;99.90;;;;;;4988517;28;20146;-74
2022/09/22 07:33:00;;;;;;;20.67;11.38;;;7.70;99.90;;;;;;4970211;28;20052;-74
2022/09/22 07:35:27;;;;;;;22.35;10.95;;;7.70;99.90;;;;;;4979152;28;20564;-74
2022/09/22 07:37:55;;;;;;;19.25;10.32;;;7.70;99.90;;;;;;4989258;28;20073;-73
2022/09/22 07:40:23;;;;;;;16.67;11.23;;;7.80;99.90;;;;;;4989777;28;20046;-74
2022/09/22 07:42:50;;;;;;;17.33;11.10;;;8.00;99.90;;;;;;4981241;28;20504;-74
2022/09/22 07:45:17;;;;;;;27.70;11.30;;;8.10;99.90;;;;;;4989561;28;20046;-73
2022/09/22 07:50:30;;;;;;;21.05;10.68;;;8.10;99.90;;;;;;4990511;28;20137;-73
2022/09/22 07:52:58;;;;;;;20.65;10.02;;;8.20;99.90;;;;;;4985371;28;20417;-72
2022/09/22 07:55:25;;;;;;;17.98;10.98;;;8.40;99.90;;;;;;4987792;28;20472;-73
2022/09/22 07:57:57;;;;;;;22.08;11.20;;;8.60;99.90;;;;;;4988538;28;20046;-73
2022/09/22 08:00:26;;;;;;;21.25;11.32;;;8.80;99.90;;;;;;4984688;28;20392;-73
2022/09/22 08:02:56;;;;;;;17.40;10.23;;;9.00;99.90;;;;;;4981830;28;20126;-74
2022/09/22 08:05:25;;;;;;;16.70;9.75;;;9.10;99.90;;;;;;4986135;28;20077;-73
2022/09/22 08:07:57;;;;;;;17.35;10.60;;;9.30;99.90;;;;;;4971612;28;20066;-73
2022/09/22 08:10:25;;;;;;;16.52;9.80;;;9.50;99.90;;;;;;4999907;28;20412;-75
2022/09/22 08:12:53;;;;;;;16.02;9.80;;;9.60;99.90;;;;;;5002577;28;20512;-73
2022/09/22 08:15:21;;;;;;;16.05;10.15;;;9.80;99.90;;;;;;4978578;28;20452;-73
2022/09/22 08:17:57;;;;;;;14.98;9.25;;;9.90;99.90;;;;;;4987133;28;20512;-73
2022/09/22 08:20:27;;;;;;;14.30;9.00;;;10.10;99.90;;;;;;4998551;28;20042;-74
2022/09/22 08:23:04;;;;;;;14.68;8.88;;;10.10;99.90;;;;;;4990608;28;20921;-74
2022/09/22 08:25:31;;;;;;;15.35;8.30;;;10.20;99.90;;;;;;4988165;28;20042;-74
2022/09/22 08:28:02;;;;;;;16.98;8.65;;;10.40;99.90;;;;;;4988394;28;20129;-73
2022/09/22 08:30:29;;;;;;;13.52;8.15;;;10.50;99.90;;;;;;4988124;28;20053;-74
2022/09/22 08:32:59;;;;;;;13.30;7.50;;;10.60;99.90;;;;;;4986964;28;20408;-74
2022/09/22 08:35:26;;;;;;;11.52;7.20;;;10.80;99.90;;;;;;4989686;28;20065;-75
2022/09/22 08:37:54;;;;;;;11.73;7.40;;;10.90;99.90;;;;;;5004375;28;20031;-74
2022/09/22 08:40:22;;;;;;;14.80;8.00;;;11.00;99.90;;;;;;4980226;28;20069;-75
2022/09/22 08:42:53;;;;;;;10.93;6.78;;;11.00;99.90;;;;;;4963093;28;20093;-75
2022/09/22 08:45:32;;;;;;;10.95;6.40;;;11.10;99.90;;;;;;4989719;28;20065;-74
2022/09/22 08:53:48;;;;;;;10.23;6.07;;;11.50;99.90;;;;;;4968168;28;20457;-74
2022/09/22 08:56:35;;;;;;;11.02;5.85;;;11.70;99.90;;;;;;4989721;28;20049;-74
2022/09/22 08:59:15;;;;;;;15.38;7.30;;;11.70;99.90;;;;;;4969196;28;20096;-74
2022/09/22 09:02:07;;;;;;;12.02;7.13;;;11.80;99.90;;;;;;4987097;28;20042;-74
2022/09/22 09:04:49;;;;;;;11.52;6.20;;;11.90;99.90;;;;;;4980067;28;20066;-73
2022/09/22 09:07:25;;;;;;;8.60;5.63;;;12.10;99.90;;;;;;4987894;28;20417;-73
2022/09/22 09:10:21;;;;;;;11.20;6.30;;;12.00;99.90;;;;;;4990793;28;20048;-73
2022/09/22 09:12:57;;;;;;;7.68;5.72;;;12.10;99.90;;;;;;4977258;28;20043;-74
2022/09/22 09:15:42;;;;;;;11.80;6.85;;;12.10;99.90;;;;;;4988678;28;20051;-75
2022/09/22 09:18:15;;;;;;;12.43;7.00;;;12.30;99.90;;;;;;4979123;28;20078;-77
2022/09/22 09:20:45;;;;;;;10.25;5.63;;;12.50;99.90;;;;;;5003067;28;20484;-74
2022/09/22 09:23:34;;;;;;;8.57;5.57;;;12.60;99.90;;;;;;4981914;28;20486;-73
2022/09/22 09:26:22;;;;;;;11.75;5.82;;;12.80;99.90;;;;;;4987606;28;20101;-73
2022/09/22 09:29:02;;;;;;;10.02;5.85;;;12.90;99.90;;;;;;4987708;28;20050;-74
2022/09/22 09:31:40;;;;;;;11.45;6.38;;;13.10;99.90;;;;;;4970395;28;20046;-72
2022/09/22 09:34:13;;;;;;;10.07;6.60;;;13.20;99.90;;;;;;4990614;28;20046;-73
2022/09/22 09:36:44;;;;;;;8.65;5.97;;;13.30;99.90;;;;;;4985455;28;20129;-73
2022/09/22 09:39:32;;;;;;;10.05;5.70;;;13.30;99.90;;;;;;4990217;28;20093;-74
2022/09/22 09:42:05;;;;;;;7.80;5.75;;;13.40;99.90;;;;;;4980260;28;20486;-73
2022/09/22 09:44:38;;;;;;;10.85;5.90;;;13.70;99.90;;;;;;4986459;28;20611;-73
2022/09/22 09:47:35;;;;;;;8.88;5.65;;;13.80;99.90;;;;;;4990588;28;20469;-72
2022/09/22 09:50:03;;;;;;;8.05;5.60;;;13.70;99.90;;;;;;4992270;28;20085;-74
2022/09/22 09:52:32;;;;;;;11.05;6.63;;;14.00;99.90;;;;;;4991476;28;20049;-73
2022/09/22 09:55:00;;;;;;;7.82;5.78;;;14.20;99.90;;;;;;4991029;28;20104;-73
2022/09/22 09:57:28;;;;;;;7.68;6.00;;;14.20;99.90;;;;;;4989995;28;20467;-73
2022/09/22 10:00:30;;;;;;;8.23;4.93;;;14.40;99.90;;;;;;4985905;28;20042;-74
2022/09/22 10:03:23;;;;;;;7.43;5.50;;;14.60;99.90;;;;;;4981837;28;20504;-73
2022/09/22 10:06:06;;;;;;;6.00;5.07;;;14.90;99.90;;;;;;4970371;28;20046;-74
2022/09/22 10:08:43;;;;;;;7.53;4.80;;;15.00;99.90;;;;;;4985656;28;20509;-74
2022/09/22 10:11:13;;;;;;;8.07;5.28;;;15.10;99.90;;;;;;4992240;28;20385;-74
2022/09/22 10:13:42;;;;;;;8.45;5.50;;;15.00;99.90;;;;;;5000875;28;20047;-75
2022/09/22 10:16:29;;;;;;;7.53;5.25;;;15.00;99.90;;;;;;4990636;28;20060;-75
2022/09/22 10:19:20;;;;;;;9.93;5.50;;;15.20;99.90;;;;;;4989002;28;20050;-73
2022/09/22 10:21:48;;;;;;;7.60;5.13;;;15.30;99.90;;;;;;4992948;28;20065;-75
2022/09/22 10:24:28;;;;;;;6.63;4.90;;;15.50;99.90;;;;;;4993424;28;20038;-74
2022/09/22 10:26:56;;;;;;;6.32;5.10;;;15.70;99.90;;;;;;4991016;28;20528;-74
2022/09/22 10:29:24;;;;;;;8.15;5.03;;;16.00;99.90;;;;;;4992181;28;20129;-73
2022/09/22 10:32:12;;;;;;;7.22;5.40;;;16.30;99.90;;;;;;4992373;28;20125;-74
2022/09/22 10:34:50;;;;;;;8.38;5.88;;;16.70;99.90;;;;;;4987449;28;20046;-74
2022/09/22 10:37:25;;;;;;;6.00;4.97;;;16.80;99.90;;;;;;4992061;28;20412;-75
2022/09/22 10:40:00;;;;;;;9.93;5.18;;;16.90;99.90;;;;;;4992317;28;20077;-75
2022/09/22 10:42:46;;;;;;;6.00;4.63;;;17.20;99.90;;;;;;4991816;28;20100;-75
2022/09/22 10:45:18;;;;;;;5.03;4.40;;;17.40;99.90;;;;;;4991960;28;20052;-75
2022/09/22 10:47:59;;;;;;;5.72;4.25;;;17.90;99.90;;;;;;4988992;28;20042;-75
2022/09/22 10:51:08;;;;;;;6.22;4.93;;;18.10;99.90;;;;;;4990530;28;20405;-75
2022/09/22 10:53:54;;;;;;;9.00;6.93;;;17.70;99.90;;;;;;4963037;28;20049;-75
2022/09/22 10:56:38;;;;;;;5.38;4.80;;;18.20;99.90;;;;;;4992363;28;20390;-75
2022/09/22 10:59:11;;;;;;;6.70;4.97;;;18.80;99.90;;;;;;4985057;28;20057;-75
2022/09/22 11:01:42;;;;;;;7.25;4.75;;;19.30;99.90;;;;;;4989343;28;20038;-74
2022/09/22 11:04:50;;;;;;;5.80;5.20;;;19.60;99.90;;;;;;4977825;28;20432;-76
2022/09/22 11:13:10;;;;;;;4.93;4.43;;;21.00;99.90;;;;;;4989622;28;20046;-74
2022/09/22 11:15:52;;;;;;;6.40;5.60;;;21.30;99.90;;;;;;4985732;28;20058;-76
2022/09/22 11:18:48;;;;;;;7.15;5.45;;;21.60;99.90;;;;;;4990622;28;20496;-75
2022/09/22 11:21:49;;;;;;;5.53;5.00;;;21.60;99.90;;;;;;4990165;28;20507;-75
2022/09/22 11:24:37;;;;;;;6.83;5.10;;;21.70;99.90;;;;;;4981034;28;20073;-74
2022/09/22 11:27:14;;;;;;;9.30;5.07;;;22.30;99.90;;;;;;4990544;28;20405;-73
2022/09/22 11:29:56;;;;;;;5.20;4.78;;;22.20;98.70;;;;;;4987430;28;20038;-73
2022/09/22 11:32:33;;;;;;;6.20;5.10;;;21.50;99.30;;;;;;4986859;28;20046;-73
2022/09/22 11:35:26;;;;;;;5.22;4.50;;;21.90;99.90;;;;;;4990967;28;20508;-74
2022/09/22 11:38:26;;;;;;;5.35;4.85;;;22.30;99.90;;;;;;4989890;28;20049;-74
2022/09/22 11:41:24;;;;;;;5.70;5.15;;;22.50;97.40;;;;;;5005101;28;20047;-72
2022/09/22 11:43:54;;;;;;;7.43;6.63;;;22.90;97.80;;;;;;4988683;28;20039;-75
2022/09/22 11:46:59;;;;;;;5.43;4.93;;;23.00;97.00;;;;;;5003907;28;20469;-73
2022/09/22 11:49:48;;;;;;;6.32;4.90;;;23.20;95.80;;;;;;4973733;28;20497;-74
2022/09/22 11:52:26;;;;;;;5.32;4.82;;;23.60;96.50;;;;;;4984464;28;20071;-73
2022/09/22 11:55:05;;;;;;;7.03;5.20;;;23.30;96.50;;;;;;4991836;28;20506;-75
2022/09/22 11:57:36;;;;;;;8.52;6.72;;;22.40;96.90;;;;;;4991389;28;20050;-73
2022/09/22 12:00:16;;;;;;;7.88;4.80;;;21.90;98.50;;;;;;4984030;28;20050;-74
2022/09/22 12:02:54;;;;;;;5.75;5.25;;;21.90;99.90;;;;;;4989678;28;20046;-72
2022/09/22 12:05:40;;;;;;;6.50;5.90;;;21.60;99.20;;;;;;4989453;28;20137;-75
2022/09/22 12:08:15;;;;;;;6.45;5.95;;;20.90;99.90;;;;;;4983047;28;20058;-74
2022/09/22 12:10:44;;;;;;;6.53;5.88;;;21.30;99.90;;;;;;4988853;28;20081;-74
2022/09/22 12:13:29;;;;;;;6.05;5.45;;;21.50;97.10;;;;;;4988836;28;20042;-75
2022/09/22 12:16:23;;;;;;;7.18;5.88;;;22.20;96.50;;;;;;4989721;28;20046;-74
2022/09/22 12:19:20;;;;;;;5.30;4.90;;;22.90;94.40;;;;;;5000243;28;20144;-74
2022/09/22 12:22:03;;;;;;;6.55;4.90;;;23.70;91.70;;;;;;4989036;28;20046;-74
2022/09/22 12:24:32;;;;;;;11.05;9.23;;;24.40;90.40;;;;;;4989127;28;20042;-74
2022/09/22 12:27:10;;;;;;;5.68;5.18;;;24.70;91.50;;;;;;4983400;28;20150;-74
2022/09/22 12:29:37;;;;;;;5.50;5.00;;;24.60;92.30;;;;;;4989225;28;20038;-74
2022/09/22 12:32:05;;;;;;;5.20;4.70;;;24.80;92.40;;;;;;4989501;28;20382;-74
2022/09/22 12:34:40;;;;;;;5.50;5.00;;;25.30;91.60;;;;;;4975929;28;20046;-74
2022/09/22 12:37:29;;;;;;;5.10;4.60;;;25.50;92.10;;;;;;4986112;28;20528;-75
2022/09/22 12:40:22;;;;;;;5.13;4.72;;;25.80;90.70;;;;;;4987865;28;20501;-74
2022/09/22 12:42:52;;;;;;;5.22;4.80;;;25.60;90.70;;;;;;4973487;28;20412;-73
2022/09/22 12:45:35;;;;;;;5.70;5.30;;;26.30;89.50;;;;;;4986084;28;20037;-73
2022/09/22 12:48:17;;;;;;;5.78;5.28;;;27.10;88.10;;;;;;4981892;28;20047;-75
2022/09/22 12:50:45;;;;;;;5.93;5.43;;;28.00;85.80;;;;;;4985882;28;20049;-74
2022/09/22 12:53:21;;;;;;;5.45;4.88;;;29.10;83.00;;;;;;4968310;28;20047;-75
2022/09/22 12:55:50;;;;;;;5.78;5.20;;;29.20;76.30;;;;;;4984872;28;20050;-75
2022/09/22 12:58:21;;;;;;;5.53;5.13;;;30.80;74.60;;;;;;4981192;28;20051;-74
2022/09/22 13:00:53;;;;;;;6.70;5.30;;;32.20;69.40;;;;;;4985555;28;20428;-74
2022/09/22 13:03:23;;;;;;;7.43;6.82;;;33.20;67.60;;;;;;4985090;28;20907;-76
2022/09/22 13:05:52;;;;;;;6.18;5.68;;;33.70;61.20;;;;;;4994524;28;20039;-75
2022/09/22 13:08:22;;;;;;;5.53;5.00;;;33.90;59.90;;;;;;4987790;28;20477;-73
2022/09/22 13:10:53;;;;;;;5.47;5.07;;;35.20;57.90;;;;;;4991131;28;20046;-74
2022/09/22 13:13:29;;;;;;;;;;;34.90;57.80;;;;;;4990223;28;20049;-75
2022/09/22 13:16:00;;;;;;;5.50;5.10;;;35.20;58.30;;;;;;4992302;28;19921;-75
2022/09/22 13:18:33;;;;;;;5.65;5.22;;;35.50;55.00;;;;;;4993854;28;20492;-76
2022/09/22 13:21:24;;;;;;;5.90;5.40;;;36.40;53.10;;;;;;4991178;28;20047;-74
2022/09/22 13:23:57;;;;;;;5.80;5.30;;;37.20;54.70;;;;;;4989388;28;20500;-75
2022/09/22 13:26:36;;;;;;;5.82;5.18;;;37.30;52.50;;;;;;4993026;28;20049;-75
2022/09/22 13:29:10;;;;;;;7.47;6.87;;;37.70;52.60;;;;;;4990007;28;20046;-74
2022/09/22 13:31:51;;;;;;;5.68;5.10;;;37.40;51.00;;;;;;4990030;28;20035;-74
2022/09/22 13:34:30;;;;;;;5.13;4.72;;;37.70;51.40;;;;;;4967123;28;20050;-74
2022/09/22 13:37:12;;;;;;;5.43;5.03;;;38.30;50.10;;;;;;4983702;28;20050;-77